Time;durP1;ratioP1;P1;durP2;ratioP2;P2;SDS_P1;SDS_P2;PMS_P1;PMS_P2;Temp;Humidity;BMP_temperature;BMP_pressure;BME280_temperature;BME280_humidity;BME280_pressure;Samples;Min_cycle;Max_cycle;Signal;HPM_P1;HPM_P2
2022/01/10 00:00:25;;;;;;;17.58;5.32;;;5.60;99.90;;;;;;4981271;28;20081;-92
2022/01/10 00:02:53;;;;;;;20.30;5.20;;;5.60;99.90;;;;;;4988492;28;20399;-93
2022/01/10 00:05:20;;;;;;;10.55;3.85;;;5.60;99.90;;;;;;4994457;28;20026;-93
2022/01/10 00:07:46;;;;;;;11.65;3.97;;;5.50;99.90;;;;;;4989800;28;20034;-93
2022/01/10 00:10:13;;;;;;;20.77;5.13;;;5.60;99.90;;;;;;4980841;28;20038;-93
2022/01/10 00:12:39;;;;;;;17.67;3.80;;;5.50;99.90;;;;;;4980874;28;20136;-93
2022/01/10 00:15:05;;;;;;;16.33;3.92;;;5.50;99.90;;;;;;4980326;28;20480;-93
2022/01/10 00:17:31;;;;;;;17.10;4.72;;;5.60;99.90;;;;;;4980454;28;20034;-93
2022/01/10 00:19:57;;;;;;;16.67;4.63;;;5.60;99.90;;;;;;4980796;28;20026;-92
2022/01/10 00:22:24;;;;;;;35.40;6.32;;;5.60;99.90;;;;;;4992079;28;20482;-93
2022/01/10 00:24:50;;;;;;;20.40;4.18;;;5.60;99.90;;;;;;4990783;28;20031;-92
2022/01/10 00:27:16;;;;;;;16.05;3.90;;;5.50;99.90;;;;;;4984319;28;20070;-92
2022/01/10 00:29:41;;;;;;;13.25;3.25;;;5.50;99.90;;;;;;4980705;28;20069;-94
2022/01/10 00:32:07;;;;;;;13.90;3.97;;;5.50;99.90;;;;;;4980555;28;20047;-92
2022/01/10 00:34:33;;;;;;;21.30;6.07;;;5.50;99.90;;;;;;4980316;28;20034;-94
2022/01/10 00:36:59;;;;;;;20.83;6.13;;;5.50;99.90;;;;;;4979781;28;20361;-94
2022/01/10 00:39:24;;;;;;;14.05;3.72;;;5.50;99.90;;;;;;4979844;28;20038;-93
2022/01/10 00:41:50;;;;;;;18.65;4.25;;;5.50;99.90;;;;;;4979417;28;20061;-93
2022/01/10 00:44:16;;;;;;;23.15;5.75;;;5.50;99.90;;;;;;4979179;28;20551;-93
2022/01/10 00:49:20;;;;;;;23.63;6.47;;;5.40;99.90;;;;;;4962972;28;20448;-93
2022/01/10 00:51:46;;;;;;;17.83;4.40;;;5.30;99.90;;;;;;4978654;28;20030;-92
2022/01/10 00:54:12;;;;;;;27.75;5.03;;;5.30;99.90;;;;;;4979767;28;20026;-93
2022/01/10 00:56:37;;;;;;;25.05;5.13;;;5.30;99.90;;;;;;4979455;28;20050;-92
2022/01/10 00:59:03;;;;;;;14.48;4.78;;;5.30;99.90;;;;;;4979442;28;20038;-94
2022/01/10 01:01:29;;;;;;;13.93;4.32;;;5.20;99.90;;;;;;4979222;28;20038;-93
2022/01/10 01:03:55;;;;;;;13.18;4.20;;;5.20;99.90;;;;;;4979393;28;20034;-93
2022/01/10 01:06:21;;;;;;;23.83;7.40;;;5.20;99.90;;;;;;4979034;28;20033;-92
2022/01/10 01:08:47;;;;;;;19.63;4.65;;;5.20;99.90;;;;;;4978692;28;20484;-93
2022/01/10 01:14:05;;;;;;;22.90;4.75;;;5.20;99.90;;;;;;4996231;28;20045;-94
2022/01/10 01:24:28;;;;;;;12.82;3.70;;;5.10;99.90;;;;;;4997533;28;20384;-92
2022/01/10 01:26:54;;;;;;;18.63;4.43;;;5.10;99.90;;;;;;4978857;28;20026;-92
2022/01/10 01:29:25;;;;;;;24.15;4.72;;;5.10;99.90;;;;;;4978738;28;20026;-93
2022/01/10 01:31:52;;;;;;;21.85;4.32;;;5.10;99.90;;;;;;4978446;28;20467;-93
2022/01/10 01:34:19;;;;;;;17.75;5.57;;;5.10;99.90;;;;;;4978097;28;20077;-94
2022/01/10 01:36:49;;;;;;;16.48;4.30;;;5.10;99.90;;;;;;4978364;28;20030;-95
2022/01/10 01:39:21;;;;;;;22.67;4.85;;;5.10;99.90;;;;;;4978490;28;20065;-92
2022/01/10 01:41:50;;;;;;;19.02;5.20;;;5.20;99.90;;;;;;4978096;28;20030;-92
2022/01/10 01:44:16;;;;;;;23.60;4.30;;;5.20;99.90;;;;;;4978094;28;20103;-93
2022/01/10 01:46:42;;;;;;;18.38;5.45;;;5.20;99.90;;;;;;4977986;28;20415;-93
2022/01/10 01:49:09;;;;;;;21.02;4.75;;;5.20;99.90;;;;;;4978362;28;20053;-93
2022/01/10 01:51:36;;;;;;;20.90;4.43;;;5.20;99.90;;;;;;4978209;28;20030;-93
2022/01/10 01:54:03;;;;;;;16.50;4.10;;;5.20;99.90;;;;;;4977973;28;20030;-93
2022/01/10 01:56:29;;;;;;;19.73;5.18;;;5.20;99.90;;;;;;4977596;28;20042;-93
2022/01/10 01:58:55;;;;;;;19.70;4.70;;;5.20;99.90;;;;;;4978346;28;20476;-93
2022/01/10 02:01:23;;;;;;;15.73;4.00;;;5.20;99.90;;;;;;4979104;28;20058;-93
2022/01/10 02:03:52;;;;;;;31.33;5.18;;;5.20;99.90;;;;;;4989920;28;20006;-92
2022/01/10 02:06:18;;;;;;;19.65;4.47;;;5.20;99.90;;;;;;5000569;28;20030;-93
2022/01/10 02:08:44;;;;;;;27.00;4.75;;;5.20;99.90;;;;;;5001403;28;20471;-94
2022/01/10 02:11:12;;;;;;;28.73;6.00;;;5.20;99.90;;;;;;4998947;28;20039;-92
2022/01/10 02:13:39;;;;;;;22.70;4.60;;;5.20;99.90;;;;;;4992790;28;20026;-93
2022/01/10 02:16:08;;;;;;;25.55;4.63;;;5.10;99.90;;;;;;4987399;28;20050;-93
2022/01/10 02:18:35;;;;;;;29.63;4.97;;;5.10;99.90;;;;;;4982511;28;20058;-93
2022/01/10 02:21:04;;;;;;;14.20;3.92;;;5.10;99.90;;;;;;4979736;28;20377;-92
2022/01/10 02:23:31;;;;;;;26.38;4.97;;;5.10;99.90;;;;;;4978755;28;20065;-92
2022/01/10 02:25:58;;;;;;;24.92;4.85;;;5.10;99.90;;;;;;4978664;28;20502;-93
2022/01/10 02:28:24;;;;;;;19.45;4.18;;;5.00;99.90;;;;;;4977872;28;20133;-92
2022/01/10 02:30:55;;;;;;;31.63;5.25;;;5.00;99.90;;;;;;4978022;28;20061;-92
2022/01/10 02:33:22;;;;;;;15.43;3.90;;;5.00;99.90;;;;;;4977639;28;20071;-92
2022/01/10 02:35:59;;;;;;;14.88;4.50;;;5.00;99.90;;;;;;4977969;28;20459;-93
2022/01/10 02:38:25;;;;;;;24.45;4.57;;;5.00;99.90;;;;;;4977942;28;20026;-92
2022/01/10 02:40:52;;;;;;;24.40;4.57;;;5.00;99.90;;;;;;4977596;28;20093;-93
2022/01/10 02:43:18;;;;;;;27.92;5.07;;;5.00;99.90;;;;;;4977334;28;20022;-92
2022/01/10 02:45:45;;;;;;;22.52;4.40;;;5.00;99.90;;;;;;4977583;28;20208;-92
2022/01/10 02:48:11;;;;;;;26.52;5.13;;;4.90;99.90;;;;;;4968036;28;20015;-93
2022/01/10 02:50:37;;;;;;;28.83;5.18;;;4.90;99.90;;;;;;4957914;28;20034;-93
2022/01/10 02:53:02;;;;;;;23.65;4.65;;;4.90;99.90;;;;;;4957612;28;20050;-94
2022/01/10 02:55:28;;;;;;;22.42;4.90;;;4.90;99.90;;;;;;4955388;28;20373;-93
2022/01/10 02:57:54;;;;;;;24.40;4.82;;;4.90;99.90;;;;;;4938639;29;20429;-92
2022/01/10 03:00:23;;;;;;;21.55;4.13;;;4.90;99.90;;;;;;4938547;29;20027;-92
2022/01/10 03:02:51;;;;;;;22.13;4.32;;;4.90;99.90;;;;;;4938126;29;20035;-94
2022/01/10 03:05:18;;;;;;;21.42;4.80;;;4.90;99.90;;;;;;4937567;29;20115;-92
2022/01/10 03:07:44;;;;;;;28.13;5.60;;;4.90;99.90;;;;;;4938099;29;20027;-92
2022/01/10 03:10:10;;;;;;;29.45;5.72;;;4.90;99.90;;;;;;4937901;29;20029;-94
2022/01/10 03:12:36;;;;;;;22.63;4.85;;;4.90;99.90;;;;;;4937974;28;20023;-92
2022/01/10 03:15:05;;;;;;;31.80;5.18;;;4.90;99.90;;;;;;4943951;29;20055;-92
2022/01/10 03:17:31;;;;;;;25.25;5.13;;;4.90;99.90;;;;;;4946218;29;20033;-92
2022/01/10 03:19:57;;;;;;;26.35;5.32;;;4.90;99.90;;;;;;4956267;29;20030;-93
2022/01/10 03:22:23;;;;;;;26.50;4.47;;;4.90;99.90;;;;;;4951986;29;20062;-93
2022/01/10 03:24:49;;;;;;;24.10;4.47;;;4.90;99.90;;;;;;4944890;29;20082;-93
2022/01/10 03:27:15;;;;;;;24.38;4.30;;;5.00;99.90;;;;;;4942128;29;20031;-93
2022/01/10 03:29:40;;;;;;;25.98;4.50;;;5.10;99.90;;;;;;4941976;29;20047;-94
2022/01/10 03:32:07;;;;;;;22.77;4.10;;;5.10;99.90;;;;;;4942040;29;20031;-93
2022/01/10 03:34:34;;;;;;;12.70;3.08;;;5.10;99.90;;;;;;4941933;29;20477;-94
2022/01/10 03:36:59;;;;;;;27.73;6.32;;;5.10;99.90;;;;;;4941796;29;20468;-93
2022/01/10 03:39:25;;;;;;;22.65;4.72;;;5.20;99.90;;;;;;4941640;29;20038;-93
2022/01/10 03:41:51;;;;;;;22.92;4.35;;;5.20;99.90;;;;;;4941871;29;20032;-92
2022/01/10 03:44:16;;;;;;;30.10;4.45;;;5.20;99.90;;;;;;4941721;29;20114;-93
2022/01/10 03:46:42;;;;;;;15.63;4.05;;;5.20;99.90;;;;;;4941634;29;20503;-94
2022/01/10 03:49:08;;;;;;;30.15;4.28;;;5.10;99.90;;;;;;4942309;29;20538;-93
2022/01/10 03:51:34;;;;;;;15.27;3.47;;;5.10;99.90;;;;;;4966029;29;20027;-93
2022/01/10 03:54:00;;;;;;;19.92;3.95;;;5.10;99.90;;;;;;4950709;29;20146;-93
2022/01/10 03:56:28;;;;;;;28.55;4.63;;;5.10;99.90;;;;;;4951042;28;20047;-93
2022/01/10 03:58:56;;;;;;;24.92;3.88;;;5.10;99.90;;;;;;4961818;28;20023;-93
2022/01/10 04:01:22;;;;;;;24.58;4.40;;;5.10;99.90;;;;;;4963878;28;20042;-92
2022/01/10 04:03:48;;;;;;;27.65;6.75;;;5.10;99.90;;;;;;4966747;28;20023;-93
2022/01/10 04:06:13;;;;;;;24.98;5.38;;;5.10;99.90;;;;;;4960905;28;20560;-93
2022/01/10 04:08:39;;;;;;;19.20;4.70;;;5.10;99.90;;;;;;4960602;28;20078;-94
2022/01/10 04:11:05;;;;;;;20.80;4.72;;;5.10;99.90;;;;;;4960153;28;20457;-93
2022/01/10 04:13:31;;;;;;;22.33;4.35;;;5.10;99.90;;;;;;4960021;28;20078;-93
2022/01/10 04:15:57;;;;;;;20.95;4.07;;;5.10;99.90;;;;;;4961064;28;20031;-92
2022/01/10 04:18:23;;;;;;;28.08;4.10;;;5.10;99.90;;;;;;4960807;28;20054;-92
2022/01/10 04:20:49;;;;;;;25.58;3.97;;;5.00;99.90;;;;;;4961351;28;20062;-92
2022/01/10 04:23:16;;;;;;;17.05;3.53;;;5.00;99.90;;;;;;4962703;28;20033;-93
2022/01/10 04:25:42;;;;;;;12.82;3.42;;;5.00;99.90;;;;;;4962301;28;20015;-92
2022/01/10 04:28:08;;;;;;;17.58;3.75;;;5.00;99.90;;;;;;4961476;28;20026;-93
2022/01/10 04:30:34;;;;;;;19.60;4.15;;;5.00;99.90;;;;;;4960420;28;20027;-92
2022/01/10 04:33:01;;;;;;;21.63;5.28;;;5.00;99.90;;;;;;4961153;28;20042;-94
2022/01/10 04:35:29;;;;;;;16.52;3.78;;;5.00;99.90;;;;;;4963696;28;20023;-92
2022/01/10 04:37:55;;;;;;;14.70;3.50;;;5.00;99.90;;;;;;4970106;28;20057;-92
2022/01/10 04:40:22;;;;;;;18.23;4.28;;;5.00;99.90;;;;;;4969619;28;20031;-94
2022/01/10 04:42:47;;;;;;;8.77;2.90;;;5.00;99.90;;;;;;4974578;28;20097;-92
2022/01/10 04:45:13;;;;;;;15.60;3.33;;;5.00;99.90;;;;;;4979191;28;20019;-93
2022/01/10 04:47:39;;;;;;;16.85;3.22;;;5.00;99.90;;;;;;4969376;28;20019;-93
2022/01/10 04:52:52;;;;;;;14.20;3.67;;;5.00;99.90;;;;;;4978992;28;20034;-92
2022/01/10 04:55:19;;;;;;;26.00;4.60;;;5.00;99.90;;;;;;4960926;28;20026;-94
2022/01/10 04:57:45;;;;;;;13.95;3.75;;;5.00;99.90;;;;;;4974114;28;20859;-93
2022/01/10 05:00:14;;;;;;;10.68;3.42;;;5.00;99.90;;;;;;4960416;28;20033;-93
2022/01/10 05:02:46;;;;;;;23.50;3.75;;;4.90;99.90;;;;;;4960193;28;20022;-92
2022/01/10 05:05:12;;;;;;;20.83;4.65;;;5.00;99.90;;;;;;4959939;28;20035;-92
2022/01/10 05:07:38;;;;;;;17.83;4.00;;;5.00;99.90;;;;;;4959700;28;20027;-92
2022/01/10 05:10:04;;;;;;;12.52;3.63;;;5.00;99.90;;;;;;4956709;28;20031;-92
2022/01/10 05:12:30;;;;;;;11.52;3.25;;;4.90;99.90;;;;;;4959499;28;20026;-92
2022/01/10 05:14:55;;;;;;;19.73;3.90;;;4.90;99.90;;;;;;4959008;28;20069;-92
2022/01/10 05:17:24;;;;;;;9.68;3.20;;;4.90;99.90;;;;;;4960042;28;20034;-91
2022/01/10 05:19:50;;;;;;;14.30;3.42;;;5.00;99.90;;;;;;4967574;28;20026;-94
2022/01/10 05:22:16;;;;;;;12.57;3.10;;;4.90;99.90;;;;;;4975839;28;20098;-93
2022/01/10 05:24:42;;;;;;;11.35;2.92;;;4.90;99.90;;;;;;4969222;28;20027;-93
2022/01/10 05:27:07;;;;;;;17.13;3.58;;;4.90;99.90;;;;;;4961389;28;20049;-93
2022/01/10 05:29:33;;;;;;;13.02;3.17;;;4.90;99.90;;;;;;4959142;28;20018;-93
2022/01/10 05:31:59;;;;;;;19.30;4.50;;;4.90;99.90;;;;;;4958960;28;20027;-92
2022/01/10 05:34:25;;;;;;;17.63;3.42;;;4.90;99.90;;;;;;4976695;28;20126;-92
2022/01/10 05:36:51;;;;;;;20.65;4.00;;;4.90;99.90;;;;;;4965893;28;20046;-92
2022/01/10 05:39:18;;;;;;;17.08;3.85;;;4.90;99.90;;;;;;4961381;28;20027;-91
2022/01/10 05:41:44;;;;;;;14.73;3.00;;;4.90;99.90;;;;;;4958633;28;20038;-91
2022/01/10 05:44:10;;;;;;;11.70;2.80;;;4.90;99.90;;;;;;4958770;28;20019;-93
2022/01/10 05:46:38;;;;;;;19.15;3.60;;;4.90;99.90;;;;;;4958400;28;20380;-93
2022/01/10 05:49:06;;;;;;;18.88;4.20;;;4.90;99.90;;;;;;4955351;28;20113;-92
2022/01/10 05:51:34;;;;;;;20.15;4.00;;;4.90;99.90;;;;;;4958825;28;20038;-93
2022/01/10 05:54:05;;;;;;;10.95;2.97;;;4.80;99.90;;;;;;4958793;28;20023;-94
2022/01/10 05:56:32;;;;;;;12.63;3.42;;;4.80;99.90;;;;;;4958028;28;20543;-92
2022/01/10 05:59:01;;;;;;;25.60;3.88;;;4.80;99.90;;;;;;4958249;28;20487;-95
2022/01/10 06:01:27;;;;;;;30.05;6.57;;;4.80;99.90;;;;;;4955978;28;20120;-93
2022/01/10 06:03:53;;;;;;;22.85;4.20;;;4.80;99.90;;;;;;4958169;28;20123;-92
2022/01/10 06:06:20;;;;;;;20.50;4.53;;;4.80;99.90;;;;;;4958403;28;20109;-92
2022/01/10 06:08:46;;;;;;;9.07;2.90;;;4.80;99.90;;;;;;4955464;28;20026;-94
2022/01/10 06:11:12;;;;;;;15.75;3.72;;;4.80;99.90;;;;;;4958057;28;20044;-93
2022/01/10 06:13:38;;;;;;;18.25;4.25;;;4.80;99.90;;;;;;4958606;28;20106;-93
2022/01/10 06:16:04;;;;;;;25.52;6.03;;;4.80;99.90;;;;;;4958049;28;20019;-93
2022/01/10 06:18:30;;;;;;;31.92;5.13;;;4.80;99.90;;;;;;4958059;28;20107;-94
2022/01/10 06:20:55;;;;;;;19.98;4.28;;;4.80;99.90;;;;;;4957950;28;20105;-94
2022/01/10 06:23:21;;;;;;;19.80;4.57;;;4.70;99.90;;;;;;4957741;28;20030;-92
2022/01/10 06:25:47;;;;;;;18.85;4.53;;;4.70;99.90;;;;;;4958051;28;20094;-95
2022/01/10 06:28:14;;;;;;;12.23;3.83;;;4.70;99.90;;;;;;4957686;28;20018;-94
2022/01/10 06:30:40;;;;;;;23.10;5.30;;;4.70;99.90;;;;;;4957478;28;20111;-94
2022/01/10 06:33:06;;;;;;;19.17;4.68;;;4.70;99.90;;;;;;4957489;28;20034;-94
2022/01/10 06:35:32;;;;;;;24.08;4.82;;;4.70;99.90;;;;;;4957599;28;20026;-94
2022/01/10 06:37:58;;;;;;;26.35;4.78;;;4.70;99.90;;;;;;4957764;28;20030;-94
2022/01/10 06:40:23;;;;;;;21.58;5.38;;;4.70;99.90;;;;;;4962880;28;20030;-93
2022/01/10 06:42:50;;;;;;;18.70;5.43;;;4.70;99.90;;;;;;4964677;28;20042;-93
2022/01/10 06:45:16;;;;;;;16.20;3.35;;;4.70;99.90;;;;;;4961702;28;20023;-93
2022/01/10 06:47:41;;;;;;;20.90;4.15;;;4.70;99.90;;;;;;4956935;28;20030;-93
2022/01/10 06:50:08;;;;;;;18.23;4.03;;;4.70;99.90;;;;;;4957684;28;20065;-93
2022/01/10 06:52:34;;;;;;;23.02;4.13;;;4.70;99.90;;;;;;4957905;28;20026;-92
2022/01/10 06:55:00;;;;;;;22.55;4.00;;;4.70;99.90;;;;;;4957415;28;20178;-94
2022/01/10 06:57:26;;;;;;;13.70;3.55;;;4.70;99.90;;;;;;4957273;28;20057;-93
2022/01/10 06:59:52;;;;;;;21.50;3.95;;;4.70;99.90;;;;;;4957414;28;20050;-94
2022/01/10 07:02:18;;;;;;;21.60;3.92;;;4.70;99.90;;;;;;4957523;28;20045;-92
2022/01/10 07:04:44;;;;;;;17.55;3.67;;;4.70;99.90;;;;;;4956926;28;20019;-94
2022/01/10 07:07:10;;;;;;;18.10;3.47;;;4.70;99.90;;;;;;4957633;28;20031;-95
2022/01/10 07:09:36;;;;;;;17.67;3.28;;;4.70;99.90;;;;;;4958002;28;20098;-94
2022/01/10 07:12:03;;;;;;;19.10;4.35;;;4.70;99.90;;;;;;4963701;28;20015;-94
2022/01/10 07:14:31;;;;;;;13.27;3.63;;;4.70;99.90;;;;;;4977237;28;20086;-94
2022/01/10 07:16:57;;;;;;;20.33;4.22;;;4.70;99.90;;;;;;4978422;28;20019;-93
2022/01/10 07:19:23;;;;;;;9.48;2.85;;;4.70;99.90;;;;;;4997217;28;20034;-94
2022/01/10 07:21:49;;;;;;;11.43;2.88;;;4.70;99.90;;;;;;4978114;28;20495;-94
2022/01/10 07:24:16;;;;;;;28.75;4.68;;;4.70;99.90;;;;;;4973016;28;20031;-93
2022/01/10 07:26:43;;;;;;;17.88;4.20;;;4.70;99.90;;;;;;4966204;28;20027;-93
2022/01/10 07:29:11;;;;;;;22.30;4.57;;;4.70;99.90;;;;;;4967180;28;20026;-93
2022/01/10 07:31:38;;;;;;;25.65;3.60;;;4.70;99.90;;;;;;4962945;28;20571;-94
2022/01/10 07:34:04;;;;;;;19.40;4.28;;;4.70;99.90;;;;;;4959543;28;20057;-93
2022/01/10 07:36:30;;;;;;;19.33;3.63;;;4.70;99.90;;;;;;4958912;28;20039;-92
2022/01/10 07:38:56;;;;;;;21.52;3.65;;;4.80;99.90;;;;;;4961823;28;20069;-92
2022/01/10 07:41:22;;;;;;;24.98;4.10;;;4.80;99.90;;;;;;4964266;28;20027;-92
2022/01/10 07:43:56;;;;;;;27.42;5.55;;;4.80;99.90;;;;;;4959587;28;20101;-91
2022/01/10 07:46:22;;;;;;;22.65;4.38;;;4.80;99.90;;;;;;4963661;28;20022;-95
2022/01/10 07:48:50;;;;;;;27.40;4.47;;;4.80;99.90;;;;;;4969160;28;20041;-92
2022/01/10 07:51:16;;;;;;;20.83;3.50;;;4.90;99.90;;;;;;4972581;28;20097;-92
2022/01/10 07:53:42;;;;;;;18.13;3.72;;;4.80;99.90;;;;;;4964078;28;20038;-92
2022/01/10 07:56:08;;;;;;;17.10;3.50;;;4.80;99.90;;;;;;4959410;28;20103;-91
2022/01/10 07:58:34;;;;;;;28.17;4.70;;;4.80;99.90;;;;;;4958391;28;20034;-91
2022/01/10 08:01:00;;;;;;;24.40;4.60;;;4.80;99.90;;;;;;4960758;28;20039;-93
2022/01/10 08:03:26;;;;;;;25.42;4.18;;;4.80;99.90;;;;;;4961352;28;20086;-93
2022/01/10 08:05:52;;;;;;;24.00;5.28;;;4.80;99.90;;;;;;4961660;28;20125;-94
2022/01/10 08:08:25;;;;;;;31.75;4.22;;;4.80;99.90;;;;;;4961699;28;20031;-94
2022/01/10 08:10:55;;;;;;;28.67;4.80;;;4.80;99.90;;;;;;4961777;28;20093;-93
2022/01/10 08:13:21;;;;;;;25.70;5.07;;;4.80;99.90;;;;;;4963307;28;20030;-93
2022/01/10 08:15:46;;;;;;;18.95;4.30;;;4.80;99.90;;;;;;4970291;28;20077;-93
2022/01/10 08:18:12;;;;;;;16.80;4.40;;;4.80;99.90;;;;;;4962425;28;20035;-93
2022/01/10 08:20:38;;;;;;;8.25;2.90;;;4.80;99.90;;;;;;4960490;28;20062;-93
2022/01/10 08:23:04;;;;;;;21.23;3.22;;;4.80;99.90;;;;;;4960438;28;20027;-93
2022/01/10 08:25:29;;;;;;;18.40;4.05;;;4.80;99.90;;;;;;4961950;28;20030;-93
2022/01/10 08:27:56;;;;;;;18.17;3.65;;;4.80;99.90;;;;;;4959757;28;20112;-93
2022/01/10 08:30:22;;;;;;;9.90;3.33;;;4.80;99.90;;;;;;4960031;28;20054;-93
2022/01/10 08:32:50;;;;;;;11.85;4.07;;;4.80;99.90;;;;;;4960536;28;20026;-93
2022/01/10 08:35:17;;;;;;;13.93;2.75;;;4.80;99.90;;;;;;4960042;28;20113;-92
2022/01/10 08:37:42;;;;;;;16.52;3.97;;;4.90;99.90;;;;;;4959860;28;20118;-92
2022/01/10 08:40:09;;;;;;;13.80;2.67;;;4.90;99.90;;;;;;4958136;28;20118;-93
2022/01/10 08:42:34;;;;;;;16.70;3.85;;;4.90;99.90;;;;;;4957175;28;20249;-93
2022/01/10 08:45:00;;;;;;;12.85;3.47;;;4.90;99.90;;;;;;4959232;28;20026;-93
2022/01/10 08:47:27;;;;;;;33.17;4.70;;;4.90;99.90;;;;;;4959052;28;20050;-91
2022/01/10 08:49:53;;;;;;;23.33;5.90;;;4.90;99.90;;;;;;4956273;28;20061;-93
2022/01/10 08:52:19;;;;;;;26.92;5.20;;;5.00;99.90;;;;;;4963114;28;20023;-92
2022/01/10 08:54:47;;;;;;;29.75;6.60;;;4.90;99.90;;;;;;4962099;28;20054;-92
2022/01/10 08:57:20;;;;;;;19.50;5.30;;;4.90;99.90;;;;;;4955188;29;20058;-95
2022/01/10 08:59:52;;;;;;;18.40;4.57;;;4.90;99.90;;;;;;4955480;28;20038;-94
2022/01/10 09:02:18;;;;;;;18.23;4.70;;;4.90;99.90;;;;;;4961737;28;20089;-93
2022/01/10 09:04:45;;;;;;;27.83;5.43;;;4.90;99.90;;;;;;4941254;29;20052;-94
2022/01/10 09:07:11;;;;;;;18.08;5.65;;;5.00;99.90;;;;;;4940515;29;20073;-94
2022/01/10 09:09:37;;;;;;;25.98;5.03;;;5.00;99.90;;;;;;4941592;28;20558;-94
2022/01/10 09:12:03;;;;;;;22.00;5.15;;;5.00;99.90;;;;;;4959032;28;20034;-93
2022/01/10 09:14:29;;;;;;;20.98;4.63;;;5.00;99.90;;;;;;4959140;28;20025;-93
2022/01/10 09:16:55;;;;;;;23.23;5.00;;;5.10;99.90;;;;;;4958997;28;20035;-91
2022/01/10 09:19:21;;;;;;;21.25;4.93;;;5.00;99.90;;;;;;4959134;28;20031;-93
2022/01/10 09:21:47;;;;;;;22.10;4.50;;;5.00;99.90;;;;;;4959152;28;20035;-94
2022/01/10 09:24:14;;;;;;;26.08;5.22;;;5.00;99.90;;;;;;4959095;28;20476;-94
2022/01/10 09:26:43;;;;;;;29.00;5.05;;;5.10;99.90;;;;;;4959900;28;20030;-94
2022/01/10 09:29:08;;;;;;;15.57;4.25;;;5.10;99.90;;;;;;4975743;28;20496;-94
2022/01/10 09:31:34;;;;;;;19.48;5.85;;;5.10;99.90;;;;;;4975814;28;20026;-94
2022/01/10 09:34:01;;;;;;;26.23;5.93;;;5.10;99.90;;;;;;4974261;28;20093;-93
2022/01/10 09:39:03;;;;;;;31.90;6.05;;;5.10;99.90;;;;;;5883450;23;21115;-93
2022/01/10 09:41:29;;;;;;;21.35;5.07;;;5.10;99.90;;;;;;4999529;28;20097;-95
2022/01/10 09:44:01;;;;;;;31.17;5.88;;;5.20;99.90;;;;;;4979530;28;20064;-93
2022/01/10 09:46:27;;;;;;;27.90;6.57;;;5.20;99.90;;;;;;4981001;28;20026;-93
2022/01/10 09:48:53;;;;;;;19.95;5.68;;;5.20;99.90;;;;;;4988158;28;20033;-95
2022/01/10 09:51:22;;;;;;;23.45;5.30;;;5.20;99.90;;;;;;5001356;28;20030;-95
2022/01/10 09:53:49;;;;;;;28.88;7.45;;;5.20;99.90;;;;;;4986913;28;20024;-94
2022/01/10 09:56:15;;;;;;;19.90;5.57;;;5.20;99.90;;;;;;4967251;28;20022;-93
2022/01/10 09:58:40;;;;;;;23.08;6.55;;;5.20;99.90;;;;;;4964575;28;20034;-94
2022/01/10 10:01:12;;;;;;;20.75;5.47;;;5.30;99.90;;;;;;4963310;28;20066;-95
2022/01/10 10:03:38;;;;;;;20.42;5.55;;;5.30;99.90;;;;;;4964130;28;20026;-92
2022/01/10 10:06:05;;;;;;;29.33;5.97;;;5.30;99.90;;;;;;4961156;28;20037;-92
2022/01/10 10:08:31;;;;;;;32.83;5.93;;;5.30;99.90;;;;;;4960354;28;20057;-92
2022/01/10 10:10:59;;;;;;;24.00;6.00;;;5.40;99.90;;;;;;4961495;28;20085;-93
2022/01/10 10:13:25;;;;;;;24.55;6.03;;;5.40;99.90;;;;;;4960460;28;20085;-92
2022/01/10 10:15:52;;;;;;;22.40;5.90;;;5.40;99.90;;;;;;4951762;28;20031;-92
2022/01/10 10:18:18;;;;;;;25.08;5.65;;;5.50;99.90;;;;;;4954670;28;20431;-94
2022/01/10 10:20:44;;;;;;;27.65;5.25;;;5.50;99.90;;;;;;4941864;29;20035;-93
2022/01/10 10:23:15;;;;;;;29.33;5.85;;;5.50;99.90;;;;;;4941810;29;20031;-92
2022/01/10 10:25:54;;;;;;;;;;;5.60;99.90;;;;;;4942652;29;20043;-93
2022/01/10 10:28:21;;;;;;;30.50;4.43;;;5.60;99.90;;;;;;4942577;29;19945;-93
2022/01/10 10:30:47;;;;;;;23.95;3.63;;;5.70;99.90;;;;;;4940808;29;20038;-93
2022/01/10 10:33:23;;;;;;;22.25;4.90;;;5.70;99.90;;;;;;4941241;29;20024;-94
2022/01/10 10:36:08;;;;;;;33.00;5.28;;;5.80;99.90;;;;;;4939880;29;20039;-93
2022/01/10 10:38:34;;;;;;;20.70;4.20;;;5.80;99.90;;;;;;4940190;29;20110;-93
2022/01/10 10:41:25;;;;;;;23.45;3.95;;;5.80;99.90;;;;;;4947444;28;20045;-92
2022/01/10 10:43:54;;;;;;;34.35;4.38;;;5.90;99.90;;;;;;4956105;29;20031;-94
2022/01/10 10:46:19;;;;;;;23.65;3.85;;;5.90;99.90;;;;;;4940338;29;20085;-95
2022/01/10 10:48:49;;;;;;;28.58;4.53;;;5.90;99.90;;;;;;4938673;29;20027;-93
2022/01/10 10:51:15;;;;;;;23.73;3.95;;;6.00;99.90;;;;;;4939352;29;20024;-94
2022/01/10 10:53:42;;;;;;;24.20;4.63;;;6.00;99.90;;;;;;4939030;28;20027;-93
2022/01/10 10:56:08;;;;;;;27.48;3.95;;;6.00;99.90;;;;;;4942000;29;20466;-94
2022/01/10 10:58:34;;;;;;;19.60;4.88;;;6.00;99.90;;;;;;4939372;29;20031;-92
2022/01/10 11:01:01;;;;;;;18.20;3.90;;;6.10;99.90;;;;;;4938987;29;20563;-92
2022/01/10 11:03:28;;;;;;;23.85;4.20;;;6.10;99.90;;;;;;4966516;28;20027;-94
2022/01/10 11:05:57;;;;;;;33.05;5.20;;;6.10;99.90;;;;;;4949882;28;20366;-92
2022/01/10 11:08:27;;;;;;;23.45;4.03;;;6.20;99.90;;;;;;4945974;28;20034;-92
2022/01/10 11:10:53;;;;;;;38.55;4.93;;;6.20;99.90;;;;;;4948512;28;20027;-92
2022/01/10 11:13:21;;;;;;;31.75;5.10;;;6.20;99.90;;;;;;4946920;28;20038;-92
2022/01/10 11:15:48;;;;;;;20.80;5.00;;;6.20;99.90;;;;;;4939588;29;20034;-94
2022/01/10 11:18:15;;;;;;;25.60;4.88;;;6.30;99.90;;;;;;4939260;28;20058;-93
2022/01/10 11:20:47;;;;;;;27.83;5.65;;;6.30;99.90;;;;;;4939161;29;20098;-93
2022/01/10 11:23:13;;;;;;;27.25;3.85;;;6.30;99.90;;;;;;4938356;29;20023;-92
2022/01/10 11:25:42;;;;;;;26.13;5.55;;;6.30;99.90;;;;;;4940238;29;20042;-91
2022/01/10 11:28:10;;;;;;;25.05;4.25;;;6.40;99.90;;;;;;4944015;29;20023;-94
2022/01/10 11:30:45;;;;;;;26.25;3.88;;;6.40;99.90;;;;;;4951806;28;20058;-92
2022/01/10 11:33:16;;;;;;;23.58;4.50;;;6.40;99.90;;;;;;4947499;28;20038;-92
2022/01/10 11:35:48;;;;;;;36.30;4.70;;;6.40;99.90;;;;;;4949169;28;20023;-93
2022/01/10 11:38:21;;;;;;;33.20;4.47;;;6.40;99.90;;;;;;4949222;28;20036;-94
2022/01/10 11:40:49;;;;;;;24.73;4.43;;;6.50;99.90;;;;;;4949476;28;20042;-92
2022/01/10 11:43:30;;;;;;;29.15;4.43;;;6.50;99.90;;;;;;4957740;28;20122;-94
2022/01/10 11:46:26;;;;;;;26.77;4.93;;;6.50;99.90;;;;;;4960982;28;20027;-92
2022/01/10 11:48:59;;;;;;;30.50;5.47;;;6.50;99.90;;;;;;4961940;28;20023;-94
2022/01/10 11:51:34;;;;;;;22.15;4.85;;;6.50;99.90;;;;;;4960859;28;20026;-94
2022/01/10 11:54:22;;;;;;;25.60;4.70;;;6.60;99.90;;;;;;4961580;28;20031;-95
2022/01/10 11:56:58;;;;;;;30.17;4.95;;;6.60;99.90;;;;;;4978358;28;20396;-94
2022/01/10 11:59:27;;;;;;;31.55;5.25;;;6.70;99.90;;;;;;4955348;28;20062;-93
2022/01/10 12:01:57;;;;;;;32.58;6.35;;;6.70;99.90;;;;;;4959072;29;20075;-94
2022/01/10 12:04:23;;;;;;;23.20;4.77;;;6.70;99.90;;;;;;4944887;29;20074;-94
2022/01/10 12:06:51;;;;;;;29.38;6.43;;;6.80;99.90;;;;;;4944152;29;20035;-93
2022/01/10 12:09:17;;;;;;;26.25;4.32;;;6.80;99.90;;;;;;4943245;29;20392;-95
2022/01/10 12:11:45;;;;;;;32.80;4.70;;;6.80;99.90;;;;;;4941817;29;20027;-94
2022/01/10 12:14:11;;;;;;;36.92;6.03;;;6.90;99.90;;;;;;4950152;28;20165;-94
2022/01/10 12:16:38;;;;;;;23.50;4.35;;;6.90;99.90;;;;;;4950783;28;20118;-94
2022/01/10 12:19:05;;;;;;;28.48;6.55;;;6.90;99.90;;;;;;4950963;28;20027;-95
2022/01/10 12:21:31;;;;;;;26.52;5.30;;;7.00;99.90;;;;;;4952073;28;20038;-96
2022/01/10 12:23:57;;;;;;;19.60;4.85;;;7.00;99.90;;;;;;4951113;28;20027;-93
2022/01/10 12:26:24;;;;;;;23.85;6.10;;;7.00;99.90;;;;;;4956311;28;20117;-94
2022/01/10 12:28:53;;;;;;;24.23;5.30;;;7.00;99.90;;;;;;4964297;28;20033;-94
2022/01/10 12:31:23;;;;;;;32.85;5.10;;;7.00;99.90;;;;;;4964527;28;20027;-95
2022/01/10 12:33:55;;;;;;;21.17;5.07;;;7.00;99.90;;;;;;4972534;28;20050;-93
2022/01/10 12:36:22;;;;;;;32.42;4.72;;;7.00;99.90;;;;;;4950808;28;20055;-94
2022/01/10 12:38:54;;;;;;;27.58;5.43;;;7.10;99.90;;;;;;4960758;28;20031;-93
2022/01/10 12:41:20;;;;;;;34.08;4.70;;;7.10;99.90;;;;;;4959932;28;20039;-94
2022/01/10 12:43:49;;;;;;;23.67;5.43;;;7.10;99.90;;;;;;4955070;28;20019;-94
2022/01/10 12:46:16;;;;;;;30.75;4.90;;;7.10;99.90;;;;;;4951190;28;20041;-93
2022/01/10 12:48:46;;;;;;;17.92;4.30;;;7.20;99.90;;;;;;4950707;28;20027;-94
2022/01/10 12:51:15;;;;;;;31.23;5.50;;;7.20;99.90;;;;;;4950821;28;20030;-93
2022/01/10 12:53:47;;;;;;;21.80;3.72;;;7.20;99.90;;;;;;4952015;28;20027;-94
2022/01/10 12:56:14;;;;;;;32.00;5.72;;;7.20;99.90;;;;;;4949401;29;20034;-94
2022/01/10 12:58:43;;;;;;;31.25;5.43;;;7.20;99.90;;;;;;4952297;28;20011;-96
2022/01/10 13:01:13;;;;;;;17.13;4.10;;;7.20;99.90;;;;;;4950274;28;20023;-94
2022/01/10 13:03:42;;;;;;;;;;;7.20;99.90;;;;;;4951291;28;20054;-94
2022/01/10 13:06:09;;;;;;;22.20;4.03;;;7.20;99.90;;;;;;4952207;28;19916;-94